Tukushi — JJ4050 — position and weather

sailwx.info

Track history (hours):
 
Tides and Currents Weather Stations Pressure Air Temp Water Temp Dewpoint Dewpoint Depression Visibility Wind Speed Wind Dir Waves Ship Positions

Tukushi

Last reported at 2017-Sep-22 01:58 UTC. Time now 2017-Sep-22 09:49 UTC.
Position N 34°42' E 135°17'.

Length 195 m; draft 6 m.

Type: Passenger vessel. MMSI: 431301679.

Date/timePositionNaut miles runAvg speedWind from/ knotsBaromVisibWave heightAir tempDewpointWater temp
2017-Sep-22 01:58N 34°42' E 135°17'0 0.0
2017-Sep-22 01:28N 34°42' E 135°17'0 0.0
2017-Sep-22 00:58N 34°42' E 135°17'0 0.0
2017-Sep-22 00:10N 34°42' E 135°17'0 0.0
2017-Sep-21 23:58N 34°42' E 135°17'0 0.0
2017-Sep-21 23:28N 34°42' E 135°17'0 0.0
2017-Sep-21 22:52N 34°42' E 135°17'0 0.0
2017-Sep-21 22:28N 34°42' E 135°17'0 0.0
2017-Sep-21 22:00N 34°42' E 135°17'510.4
2017-Sep-21 21:30N 34°37' E 135°17'1019.0
2017-Sep-21 21:00N 34°34' E 135°06'917.6
2017-Sep-21 20:30N 34°36' E 134°55'1119.7
2017-Sep-21 19:57N 34°31' E 134°43'11 0.3
2017-Sep-20 10:47N 34°36' E 134°55'621.0
2017-Sep-20 10:30N 34°37' E 135°02'1020.4
2017-Sep-20 10:00N 34°37' E 135°14'611.7
2017-Sep-20 09:30N 34°42' E 135°17'0 0.0
2017-Sep-20 09:00N 34°42' E 135°17'0 0.0
2017-Sep-20 08:30N 34°42' E 135°17'0 0.0
2017-Sep-20 08:00N 34°42' E 135°17'0 0.0
2017-Sep-20 07:30N 34°42' E 135°17'0 0.0
2017-Sep-20 06:59N 34°42' E 135°17'0 0.0
2017-Sep-20 06:30N 34°42' E 135°17'0 0.0
2017-Sep-20 06:00N 34°42' E 135°17'0 0.0
2017-Sep-20 05:30N 34°42' E 135°17'0 0.0
2017-Sep-20 05:00N 34°42' E 135°17'0 0.0
2017-Sep-20 04:30N 34°42' E 135°17'0 0.0
2017-Sep-20 04:00N 34°42' E 135°17'0 0.0
2017-Sep-20 03:30N 34°42' E 135°17'0 0.0
2017-Sep-20 03:00N 34°42' E 135°17'0 0.0
2017-Sep-20 02:30N 34°42' E 135°17'0 0.0
2017-Sep-20 02:00N 34°42' E 135°17'0 0.0
2017-Sep-20 01:30N 34°42' E 135°17'0 0.0
2017-Sep-20 01:00N 34°42' E 135°17'0 0.0
2017-Sep-20 00:30N 34°42' E 135°17'0 0.0
2017-Sep-20 00:00N 34°42' E 135°17'0 0.0
2017-Sep-19 23:30N 34°42' E 135°17'0 0.0
2017-Sep-19 23:00N 34°42' E 135°17'0 0.0
2017-Sep-19 22:30N 34°42' E 135°17'0 0.1
2017-Sep-19 22:00N 34°42' E 135°17'4 9.0
2017-Sep-19 21:31N 34°37' E 135°17'1020.6
2017-Sep-19 21:00N 34°34' E 135°05'917.8
2017-Sep-19 20:30N 34°35' E 134°54'1 0.0
2017-Sep-18 10:44N 34°36' E 134°54'624.7
2017-Sep-18 10:30N 34°38' E 135°00'1121.9
2017-Sep-18 10:00N 34°37' E 135°13'612.3
2017-Sep-18 09:30N 34°42' E 135°17'0 0.0
2017-Sep-18 09:00N 34°42' E 135°17'0 0.0
2017-Sep-18 08:30N 34°42' E 135°17'0 0.0
2017-Sep-18 08:00N 34°42' E 135°17'0 0.0
2017-Sep-18 07:30N 34°42' E 135°17'0 0.0
2017-Sep-18 07:00N 34°42' E 135°17'0 0.0
2017-Sep-18 06:30N 34°42' E 135°17'0 0.0
2017-Sep-18 06:00N 34°42' E 135°17'0 0.0
2017-Sep-18 05:30N 34°42' E 135°17'0 0.0
2017-Sep-18 05:00N 34°42' E 135°17'0 0.0
2017-Sep-18 04:30N 34°42' E 135°17'0 0.0
2017-Sep-18 04:00N 34°42' E 135°17'0 0.0
2017-Sep-18 03:30N 34°42' E 135°17'0 0.0
2017-Sep-18 03:00N 34°42' E 135°17'0 0.0
2017-Sep-18 02:29N 34°42' E 135°17'0 0.0
2017-Sep-18 02:00N 34°42' E 135°17'0 0.0
2017-Sep-18 01:30N 34°42' E 135°17'0 0.0
2017-Sep-18 01:00N 34°42' E 135°17'0 0.0
2017-Sep-18 00:30N 34°42' E 135°17'0 0.0
2017-Sep-18 00:00N 34°42' E 135°17'4 8.1
2017-Sep-17 23:31N 34°38' E 135°18'1020.3
2017-Sep-17 23:01N 34°34' E 135°07'1019.2
2017-Sep-17 22:30N 34°36' E 134°56'3 0.1
2017-Sep-16 05:04N 34°35' E 134°52'121.0
2017-Sep-16 05:00N 34°35' E 134°54'917.8
2017-Sep-16 04:30N 34°36' E 135°04'1019.2
2017-Sep-16 04:00N 34°37' E 135°16'5 9.6
2017-Sep-16 03:30N 34°42' E 135°17'0 0.1
2017-Sep-16 02:55N 34°42' E 135°17'0 0.0
2017-Sep-16 02:25N 34°42' E 135°17'0 0.0
2017-Sep-16 01:49N 34°42' E 135°17'0 0.0
2017-Sep-16 01:25N 34°42' E 135°17'0 0.0
2017-Sep-16 01:00N 34°42' E 135°17'0 0.0
2017-Sep-16 00:30N 34°42' E 135°17'0 0.0
2017-Sep-15 23:59N 34°42' E 135°17'0 0.0
2017-Sep-15 23:30N 34°42' E 135°17'1 1.7
2017-Sep-15 23:00N 34°41' E 135°18'714.5
2017-Sep-15 22:30N 34°35' E 135°13'1020.6
2017-Sep-15 22:00N 34°37' E 135°00'1222.3
2017-Sep-15 21:29N 34°33' E 134°47'1 0.0
2017-Sep-14 11:03N 34°33' E 134°46'522.6
2017-Sep-14 10:51N 34°35' E 134°52'821.7
2017-Sep-14 10:30N 34°38' E 135°00'1021.3
2017-Sep-14 10:00N 34°37' E 135°13'612.2
2017-Sep-14 09:30N 34°42' E 135°17'0 0.0
2017-Sep-14 09:00N 34°42' E 135°17'0 0.0
2017-Sep-14 08:30N 34°42' E 135°17'0 0.0
2017-Sep-14 08:00N 34°42' E 135°17'0 0.0
2017-Sep-14 07:30N 34°42' E 135°17'0 0.0
2017-Sep-14 06:57N 34°42' E 135°17'0 0.0
2017-Sep-14 06:27N 34°42' E 135°17'0 0.0
2017-Sep-14 05:51N 34°42' E 135°17'0 0.0
2017-Sep-14 05:27N 34°42' E 135°17'0 0.0
2017-Sep-14 04:57N 34°42' E 135°17'0 0.0
2017-Sep-14 04:27N 34°42' E 135°17'0 0.0
2017-Sep-14 03:57N 34°42' E 135°17'0 0.0
2017-Sep-14 03:21N 34°42' E 135°17'0 0.0
2017-Sep-14 02:57N 34°42' E 135°17'0 0.0
2017-Sep-14 02:27N 34°42' E 135°17'0 0.0
2017-Sep-14 01:45N 34°42' E 135°17'0 0.0
2017-Sep-14 01:27N 34°42' E 135°17'0 0.0
2017-Sep-14 00:57N 34°42' E 135°17'0 0.0
2017-Sep-14 00:27N 34°42' E 135°17'0 0.0
2017-Sep-13 23:57N 34°42' E 135°17'0 0.0
2017-Sep-13 23:27N 34°42' E 135°17'0 0.0
2017-Sep-13 23:00N 34°42' E 135°17'0 0.0
2017-Sep-13 22:30N 34°42' E 135°17'0 0.0
2017-Sep-13 22:00N 34°42' E 135°17'4 8.9
2017-Sep-13 21:31N 34°37' E 135°17'1019.1
2017-Sep-13 21:00N 34°35' E 135°06'1019.5
2017-Sep-13 20:30N 34°36' E 134°54'2 0.1
2017-Sep-12 10:51N 34°35' E 134°52'820.6
2017-Sep-12 10:28N 34°37' E 135°01'920.2
2017-Sep-12 10:00N 34°36' E 135°12'713.8
2017-Sep-12 09:30N 34°42' E 135°17'0 0.2
2017-Sep-12 09:00N 34°42' E 135°17'0 0.0
2017-Sep-12 08:30N 34°42' E 135°17'0 0.0
2017-Sep-12 08:00N 34°42' E 135°17'0 0.0
2017-Sep-12 07:24N 34°42' E 135°17'0 0.0
2017-Sep-12 06:54N 34°42' E 135°17'0 0.0
2017-Sep-12 06:30N 34°42' E 135°17'0 0.0
2017-Sep-12 06:00N 34°42' E 135°17'0 0.0
2017-Sep-12 05:30N 34°42' E 135°17'0 0.0
2017-Sep-12 04:36N 34°42' E 135°17'0 0.0
2017-Sep-12 04:30N 34°42' E 135°17'0 0.0
2017-Sep-12 03:48N 34°42' E 135°17'0 0.0
2017-Sep-12 03:24N 34°42' E 135°17'0 0.0
2017-Sep-12 03:00N 34°42' E 135°17'0 0.0
2017-Sep-12 02:30N 34°42' E 135°17'  
Track history (hours):
 
Tides and Currents Weather Stations Pressure Air Temp Water Temp Dewpoint Dewpoint Depression Visibility Wind Speed Wind Dir Waves Ship Positions

Tukushi

Last reported at 2017-Sep-22 01:58 UTC. Time now 2017-Sep-22 09:49 UTC.
Position N 34°42' E 135°17'.

Length 195 m; draft 6 m.

Type: Passenger vessel. MMSI: 431301679.

Date/timePositionNaut miles runAvg speedWind from/ knotsBaromVisibWave heightAir tempDewpointWater temp
2017-Sep-22 01:58N 34°42' E 135°17'0 0.0
2017-Sep-22 01:28N 34°42' E 135°17'0 0.0
2017-Sep-22 00:58N 34°42' E 135°17'0 0.0
2017-Sep-22 00:10N 34°42' E 135°17'0 0.0
2017-Sep-21 23:58N 34°42' E 135°17'0 0.0
2017-Sep-21 23:28N 34°42' E 135°17'0 0.0
2017-Sep-21 22:52N 34°42' E 135°17'0 0.0
2017-Sep-21 22:28N 34°42' E 135°17'0 0.0
2017-Sep-21 22:00N 34°42' E 135°17'510.4
2017-Sep-21 21:30N 34°37' E 135°17'1019.0
2017-Sep-21 21:00N 34°34' E 135°06'917.6
2017-Sep-21 20:30N 34°36' E 134°55'1119.7
2017-Sep-21 19:57N 34°31' E 134°43'11 0.3
2017-Sep-20 10:47N 34°36' E 134°55'621.0
2017-Sep-20 10:30N 34°37' E 135°02'1020.4
2017-Sep-20 10:00N 34°37' E 135°14'611.7
2017-Sep-20 09:30N 34°42' E 135°17'0 0.0
2017-Sep-20 09:00N 34°42' E 135°17'0 0.0
2017-Sep-20 08:30N 34°42' E 135°17'0 0.0
2017-Sep-20 08:00N 34°42' E 135°17'0 0.0
2017-Sep-20 07:30N 34°42' E 135°17'0 0.0
2017-Sep-20 06:59N 34°42' E 135°17'0 0.0
2017-Sep-20 06:30N 34°42' E 135°17'0 0.0
2017-Sep-20 06:00N 34°42' E 135°17'0 0.0
2017-Sep-20 05:30N 34°42' E 135°17'0 0.0
2017-Sep-20 05:00N 34°42' E 135°17'0 0.0
2017-Sep-20 04:30N 34°42' E 135°17'0 0.0
2017-Sep-20 04:00N 34°42' E 135°17'0 0.0
2017-Sep-20 03:30N 34°42' E 135°17'0 0.0
2017-Sep-20 03:00N 34°42' E 135°17'0 0.0
2017-Sep-20 02:30N 34°42' E 135°17'0 0.0
2017-Sep-20 02:00N 34°42' E 135°17'0 0.0
2017-Sep-20 01:30N 34°42' E 135°17'0 0.0
2017-Sep-20 01:00N 34°42' E 135°17'0 0.0
2017-Sep-20 00:30N 34°42' E 135°17'0 0.0
2017-Sep-20 00:00N 34°42' E 135°17'0 0.0
2017-Sep-19 23:30N 34°42' E 135°17'0 0.0
2017-Sep-19 23:00N 34°42' E 135°17'0 0.0
2017-Sep-19 22:30N 34°42' E 135°17'0 0.1
2017-Sep-19 22:00N 34°42' E 135°17'4 9.0
2017-Sep-19 21:31N 34°37' E 135°17'1020.6
2017-Sep-19 21:00N 34°34' E 135°05'917.8
2017-Sep-19 20:30N 34°35' E 134°54'1 0.0
2017-Sep-18 10:44N 34°36' E 134°54'624.7
2017-Sep-18 10:30N 34°38' E 135°00'1121.9
2017-Sep-18 10:00N 34°37' E 135°13'612.3
2017-Sep-18 09:30N 34°42' E 135°17'0 0.0
2017-Sep-18 09:00N 34°42' E 135°17'0 0.0
2017-Sep-18 08:30N 34°42' E 135°17'0 0.0
2017-Sep-18 08:00N 34°42' E 135°17'0 0.0
2017-Sep-18 07:30N 34°42' E 135°17'0 0.0
2017-Sep-18 07:00N 34°42' E 135°17'0 0.0
2017-Sep-18 06:30N 34°42' E 135°17'0 0.0
2017-Sep-18 06:00N 34°42' E 135°17'0 0.0
2017-Sep-18 05:30N 34°42' E 135°17'0 0.0
2017-Sep-18 05:00N 34°42' E 135°17'0 0.0
2017-Sep-18 04:30N 34°42' E 135°17'0 0.0
2017-Sep-18 04:00N 34°42' E 135°17'0 0.0
2017-Sep-18 03:30N 34°42' E 135°17'0 0.0
2017-Sep-18 03:00N 34°42' E 135°17'0 0.0
2017-Sep-18 02:29N 34°42' E 135°17'0 0.0
2017-Sep-18 02:00N 34°42' E 135°17'0 0.0
2017-Sep-18 01:30N 34°42' E 135°17'0 0.0
2017-Sep-18 01:00N 34°42' E 135°17'0 0.0
2017-Sep-18 00:30N 34°42' E 135°17'0 0.0
2017-Sep-18 00:00N 34°42' E 135°17'4 8.1
2017-Sep-17 23:31N 34°38' E 135°18'1020.3
2017-Sep-17 23:01N 34°34' E 135°07'1019.2
2017-Sep-17 22:30N 34°36' E 134°56'3 0.1
2017-Sep-16 05:04N 34°35' E 134°52'121.0
2017-Sep-16 05:00N 34°35' E 134°54'917.8
2017-Sep-16 04:30N 34°36' E 135°04'1019.2
2017-Sep-16 04:00N 34°37' E 135°16'5 9.6
2017-Sep-16 03:30N 34°42' E 135°17'0 0.1
2017-Sep-16 02:55N 34°42' E 135°17'0 0.0
2017-Sep-16 02:25N 34°42' E 135°17'0 0.0
2017-Sep-16 01:49N 34°42' E 135°17'0 0.0
2017-Sep-16 01:25N 34°42' E 135°17'0 0.0
2017-Sep-16 01:00N 34°42' E 135°17'0 0.0
2017-Sep-16 00:30N 34°42' E 135°17'0 0.0
2017-Sep-15 23:59N 34°42' E 135°17'0 0.0
2017-Sep-15 23:30N 34°42' E 135°17'1 1.7
2017-Sep-15 23:00N 34°41' E 135°18'714.5
2017-Sep-15 22:30N 34°35' E 135°13'1020.6
2017-Sep-15 22:00N 34°37' E 135°00'1222.3
2017-Sep-15 21:29N 34°33' E 134°47'1 0.0
2017-Sep-14 11:03N 34°33' E 134°46'522.6
2017-Sep-14 10:51N 34°35' E 134°52'821.7
2017-Sep-14 10:30N 34°38' E 135°00'1021.3
2017-Sep-14 10:00N 34°37' E 135°13'612.2
2017-Sep-14 09:30N 34°42' E 135°17'0 0.0
2017-Sep-14 09:00N 34°42' E 135°17'0 0.0
2017-Sep-14 08:30N 34°42' E 135°17'0 0.0
2017-Sep-14 08:00N 34°42' E 135°17'0 0.0
2017-Sep-14 07:30N 34°42' E 135°17'0 0.0
2017-Sep-14 06:57N 34°42' E 135°17'0 0.0
2017-Sep-14 06:27N 34°42' E 135°17'0 0.0
2017-Sep-14 05:51N 34°42' E 135°17'0 0.0
2017-Sep-14 05:27N 34°42' E 135°17'0 0.0
2017-Sep-14 04:57N 34°42' E 135°17'0 0.0
2017-Sep-14 04:27N 34°42' E 135°17'0 0.0
2017-Sep-14 03:57N 34°42' E 135°17'0 0.0
2017-Sep-14 03:21N 34°42' E 135°17'0 0.0
2017-Sep-14 02:57N 34°42' E 135°17'0 0.0
2017-Sep-14 02:27N 34°42' E 135°17'0 0.0
2017-Sep-14 01:45N 34°42' E 135°17'0 0.0
2017-Sep-14 01:27N 34°42' E 135°17'0 0.0
2017-Sep-14 00:57N 34°42' E 135°17'0 0.0
2017-Sep-14 00:27N 34°42' E 135°17'0 0.0
2017-Sep-13 23:57N 34°42' E 135°17'0 0.0
2017-Sep-13 23:27N 34°42' E 135°17'0 0.0
2017-Sep-13 23:00N 34°42' E 135°17'0 0.0
2017-Sep-13 22:30N 34°42' E 135°17'0 0.0
2017-Sep-13 22:00N 34°42' E 135°17'4 8.9
2017-Sep-13 21:31N 34°37' E 135°17'1019.1
2017-Sep-13 21:00N 34°35' E 135°06'1019.5
2017-Sep-13 20:30N 34°36' E 134°54'2 0.1
2017-Sep-12 10:51N 34°35' E 134°52'820.6
2017-Sep-12 10:28N 34°37' E 135°01'920.2
2017-Sep-12 10:00N 34°36' E 135°12'713.8
2017-Sep-12 09:30N 34°42' E 135°17'0 0.2
2017-Sep-12 09:00N 34°42' E 135°17'0 0.0
2017-Sep-12 08:30N 34°42' E 135°17'0 0.0
2017-Sep-12 08:00N 34°42' E 135°17'0 0.0
2017-Sep-12 07:24N 34°42' E 135°17'0 0.0
2017-Sep-12 06:54N 34°42' E 135°17'0 0.0
2017-Sep-12 06:30N 34°42' E 135°17'0 0.0
2017-Sep-12 06:00N 34°42' E 135°17'0 0.0
2017-Sep-12 05:30N 34°42' E 135°17'0 0.0
2017-Sep-12 04:36N 34°42' E 135°17'0 0.0
2017-Sep-12 04:30N 34°42' E 135°17'0 0.0
2017-Sep-12 03:48N 34°42' E 135°17'0 0.0
2017-Sep-12 03:24N 34°42' E 135°17'0 0.0
2017-Sep-12 03:00N 34°42' E 135°17'0 0.0
2017-Sep-12 02:30N 34°42' E 135°17'  

Dump ship's entire track history